Terminal Aerodrome Forecast
Issued by NWS

Home | Current Version | Previous Version | Text Only | Print | Product List | Glossary On
Versions: 1 2 3 4 5 6 7 8 9 10 11 12
000
FTUS43 KDVN 180500
TAFCID
TAF
KCID 180520Z 1806/1906 15003KT P6SM SCT070 SCT200
     FM181200 08006KT P6SM SCT080 BKN150
     FM182000 10009KT P6SM -RA SCT060 BKN100
     FM190000 10010KT 6SM -RA BR OVC035=

USA.gov is the U.S. government's official web portal to all federal, state and local government web resources and services.